sensor_id;sensor_type;location;lat;lon;timestamp;temperature;humidity
65584;DHT22;70321;43.592;1.456;2023-09-19T00:00:21;20.23;70.62
65584;DHT22;70321;43.592;1.456;2023-09-19T00:02:55;20.21;70.92
65584;DHT22;70321;43.592;1.456;2023-09-19T00:05:29;20.23;70.98
65584;DHT22;70321;43.592;1.456;2023-09-19T00:07:57;20.26;70.25
65584;DHT22;70321;43.592;1.456;2023-09-19T00:10:29;20.24;70.11
65584;DHT22;70321;43.592;1.456;2023-09-19T00:13:04;20.24;70.39
65584;DHT22;70321;43.592;1.456;2023-09-19T00:15:40;20.19;70.92
65584;DHT22;70321;43.592;1.456;2023-09-19T00:18:08;20.14;70.94
65584;DHT22;70321;43.592;1.456;2023-09-19T00:20:38;20.10;71.39
65584;DHT22;70321;43.592;1.456;2023-09-19T00:23:05;20.13;71.54
65584;DHT22;70321;43.592;1.456;2023-09-19T00:25:37;20.09;71.73
65584;DHT22;70321;43.592;1.456;2023-09-19T00:28:05;20.09;71.76
65584;DHT22;70321;43.592;1.456;2023-09-19T00:30:36;20.07;71.86
65584;DHT22;70321;43.592;1.456;2023-09-19T00:33:05;20.12;71.78
65584;DHT22;70321;43.592;1.456;2023-09-19T00:35:34;20.13;71.84
65584;DHT22;70321;43.592;1.456;2023-09-19T00:38:01;20.16;71.54
65584;DHT22;70321;43.592;1.456;2023-09-19T00:40:28;20.21;71.43
65584;DHT22;70321;43.592;1.456;2023-09-19T00:42:59;20.20;71.71
65584;DHT22;70321;43.592;1.456;2023-09-19T00:45:29;20.23;72.05
65584;DHT22;70321;43.592;1.456;2023-09-19T00:47:56;20.20;72.07
65584;DHT22;70321;43.592;1.456;2023-09-19T00:50:25;20.17;71.95
65584;DHT22;70321;43.592;1.456;2023-09-19T00:52:54;20.14;72.06
65584;DHT22;70321;43.592;1.456;2023-09-19T00:55:25;20.09;71.99
65584;DHT22;70321;43.592;1.456;2023-09-19T00:57:52;20.01;72.28
65584;DHT22;70321;43.592;1.456;2023-09-19T01:00:19;19.93;72.30
65584;DHT22;70321;43.592;1.456;2023-09-19T01:02:47;19.92;72.60
65584;DHT22;70321;43.592;1.456;2023-09-19T01:05:15;19.89;72.91
65584;DHT22;70321;43.592;1.456;2023-09-19T01:07:42;19.86;73.05
65584;DHT22;70321;43.592;1.456;2023-09-19T01:10:17;19.83;72.99
65584;DHT22;70321;43.592;1.456;2023-09-19T01:20:50;19.89;73.04
65584;DHT22;70321;43.592;1.456;2023-09-19T01:28:45;19.83;73.63
65584;DHT22;70321;43.592;1.456;2023-09-19T01:31:21;19.83;73.39
65584;DHT22;70321;43.592;1.456;2023-09-19T01:33:58;19.82;73.33
65584;DHT22;70321;43.592;1.456;2023-09-19T01:36:35;19.85;73.45
65584;DHT22;70321;43.592;1.456;2023-09-19T01:39:10;19.87;72.94
65584;DHT22;70321;43.592;1.456;2023-09-19T01:41:56;19.80;73.24
65584;DHT22;70321;43.592;1.456;2023-09-19T01:47:13;19.70;73.57
65584;DHT22;70321;43.592;1.456;2023-09-19T01:49:44;19.67;73.42
65584;DHT22;70321;43.592;1.456;2023-09-19T01:52:13;19.67;73.55
65584;DHT22;70321;43.592;1.456;2023-09-19T01:54:49;19.66;73.78
65584;DHT22;70321;43.592;1.456;2023-09-19T01:57:27;19.66;74.18
65584;DHT22;70321;43.592;1.456;2023-09-19T02:00:00;19.66;74.28
65584;DHT22;70321;43.592;1.456;2023-09-19T02:02:37;19.66;74.23
65584;DHT22;70321;43.592;1.456;2023-09-19T02:05:04;19.69;74.35
65584;DHT22;70321;43.592;1.456;2023-09-19T02:07:31;19.69;74.28
65584;DHT22;70321;43.592;1.456;2023-09-19T02:09:59;19.72;74.17
65584;DHT22;70321;43.592;1.456;2023-09-19T02:12:32;19.75;73.77
65584;DHT22;70321;43.592;1.456;2023-09-19T02:15:02;19.67;73.91
65584;DHT22;70321;43.592;1.456;2023-09-19T02:17:29;19.66;73.95
65584;DHT22;70321;43.592;1.456;2023-09-19T02:19:57;19.58;73.77
65584;DHT22;70321;43.592;1.456;2023-09-19T02:22:25;19.55;74.06
65584;DHT22;70321;43.592;1.456;2023-09-19T02:24:52;19.55;73.61
65584;DHT22;70321;43.592;1.456;2023-09-19T02:27:20;19.54;73.88
65584;DHT22;70321;43.592;1.456;2023-09-19T02:29:46;19.49;73.94
65584;DHT22;70321;43.592;1.456;2023-09-19T02:32:14;19.46;74.06
65584;DHT22;70321;43.592;1.456;2023-09-19T02:34:41;19.45;74.20
65584;DHT22;70321;43.592;1.456;2023-09-19T02:37:08;19.45;74.05
65584;DHT22;70321;43.592;1.456;2023-09-19T02:39:35;19.46;74.45
65584;DHT22;70321;43.592;1.456;2023-09-19T02:42:02;19.44;74.62
65584;DHT22;70321;43.592;1.456;2023-09-19T02:44:30;19.46;74.54
65584;DHT22;70321;43.592;1.456;2023-09-19T02:46:57;19.46;74.48
65584;DHT22;70321;43.592;1.456;2023-09-19T02:49:24;19.44;74.24
65584;DHT22;70321;43.592;1.456;2023-09-19T02:51:51;19.46;74.44
65584;DHT22;70321;43.592;1.456;2023-09-19T02:54:18;19.45;74.34
65584;DHT22;70321;43.592;1.456;2023-09-19T02:56:45;19.42;74.36
65584;DHT22;70321;43.592;1.456;2023-09-19T02:59:13;19.36;74.23
65584;DHT22;70321;43.592;1.456;2023-09-19T03:01:43;19.38;74.29
65584;DHT22;70321;43.592;1.456;2023-09-19T03:04:10;19.36;74.31
65584;DHT22;70321;43.592;1.456;2023-09-19T03:06:38;19.36;74.53
65584;DHT22;70321;43.592;1.456;2023-09-19T03:09:08;19.36;74.45
65584;DHT22;70321;43.592;1.456;2023-09-19T03:11:40;19.38;74.60
65584;DHT22;70321;43.592;1.456;2023-09-19T03:14:08;19.35;74.59
65584;DHT22;70321;43.592;1.456;2023-09-19T03:16:36;19.34;74.77
65584;DHT22;70321;43.592;1.456;2023-09-19T03:19:04;19.36;74.89
65584;DHT22;70321;43.592;1.456;2023-09-19T03:21:31;19.38;74.51
65584;DHT22;70321;43.592;1.456;2023-09-19T03:23:58;19.36;74.76
65584;DHT22;70321;43.592;1.456;2023-09-19T03:26:25;19.38;74.82
65584;DHT22;70321;43.592;1.456;2023-09-19T03:28:53;19.38;74.78
65584;DHT22;70321;43.592;1.456;2023-09-19T03:31:20;19.35;74.55
65584;DHT22;70321;43.592;1.456;2023-09-19T03:33:47;19.34;74.53
65584;DHT22;70321;43.592;1.456;2023-09-19T03:36:14;19.32;74.77
65584;DHT22;70321;43.592;1.456;2023-09-19T03:38:41;19.28;74.32
65584;DHT22;70321;43.592;1.456;2023-09-19T03:41:07;19.25;74.38
65584;DHT22;70321;43.592;1.456;2023-09-19T03:43:34;19.22;74.72
65584;DHT22;70321;43.592;1.456;2023-09-19T03:46:01;19.22;74.42
65584;DHT22;70321;43.592;1.456;2023-09-19T03:48:30;19.21;74.69
65584;DHT22;70321;43.592;1.456;2023-09-19T03:50:57;19.16;74.87
65584;DHT22;70321;43.592;1.456;2023-09-19T03:53:24;19.18;74.88
65584;DHT22;70321;43.592;1.456;2023-09-19T03:55:51;19.19;74.85
65584;DHT22;70321;43.592;1.456;2023-09-19T03:58:17;19.16;74.60
65584;DHT22;70321;43.592;1.456;2023-09-19T04:00:44;19.14;74.69
65584;DHT22;70321;43.592;1.456;2023-09-19T04:03:11;19.14;74.73
65584;DHT22;70321;43.592;1.456;2023-09-19T04:05:46;19.10;74.82
65584;DHT22;70321;43.592;1.456;2023-09-19T04:08:14;19.10;74.89
65584;DHT22;70321;43.592;1.456;2023-09-19T04:10:44;19.05;74.89
65584;DHT22;70321;43.592;1.456;2023-09-19T04:13:12;19.05;74.97
65584;DHT22;70321;43.592;1.456;2023-09-19T04:15:38;18.97;74.82
65584;DHT22;70321;43.592;1.456;2023-09-19T04:18:06;18.94;74.99
65584;DHT22;70321;43.592;1.456;2023-09-19T04:20:33;18.87;74.98
65584;DHT22;70321;43.592;1.456;2023-09-19T04:23:00;18.87;75.31
65584;DHT22;70321;43.592;1.456;2023-09-19T04:25:26;18.87;75.39
65584;DHT22;70321;43.592;1.456;2023-09-19T04:27:54;18.90;75.45
65584;DHT22;70321;43.592;1.456;2023-09-19T04:30:21;18.91;75.39
65584;DHT22;70321;43.592;1.456;2023-09-19T04:32:48;18.90;75.63
65584;DHT22;70321;43.592;1.456;2023-09-19T04:35:18;18.90;75.65
65584;DHT22;70321;43.592;1.456;2023-09-19T04:37:45;18.94;75.54
65584;DHT22;70321;43.592;1.456;2023-09-19T04:40:12;18.97;75.56
65584;DHT22;70321;43.592;1.456;2023-09-19T04:42:44;18.98;75.46
65584;DHT22;70321;43.592;1.456;2023-09-19T04:45:12;19.02;75.51
65584;DHT22;70321;43.592;1.456;2023-09-19T04:47:39;19.04;75.49
65584;DHT22;70321;43.592;1.456;2023-09-19T04:50:07;19.04;75.69
65584;DHT22;70321;43.592;1.456;2023-09-19T04:52:41;19.05;75.54
65584;DHT22;70321;43.592;1.456;2023-09-19T04:55:10;19.05;75.33
65584;DHT22;70321;43.592;1.456;2023-09-19T04:57:37;19.01;75.37
65584;DHT22;70321;43.592;1.456;2023-09-19T05:00:04;19.04;75.51
65584;DHT22;70321;43.592;1.456;2023-09-19T05:02:38;19.02;75.49
65584;DHT22;70321;43.592;1.456;2023-09-19T05:05:09;19.01;75.20
65584;DHT22;70321;43.592;1.456;2023-09-19T05:07:39;19.01;75.44
65584;DHT22;70321;43.592;1.456;2023-09-19T05:10:07;18.98;75.11
65584;DHT22;70321;43.592;1.456;2023-09-19T05:12:34;18.95;75.10
65584;DHT22;70321;43.592;1.456;2023-09-19T05:15:05;18.90;75.36
65584;DHT22;70321;43.592;1.456;2023-09-19T05:17:34;18.84;75.71
65584;DHT22;70321;43.592;1.456;2023-09-19T05:20:02;18.85;75.66
65584;DHT22;70321;43.592;1.456;2023-09-19T05:22:42;18.85;75.75
65584;DHT22;70321;43.592;1.456;2023-09-19T05:25:10;18.87;75.63
65584;DHT22;70321;43.592;1.456;2023-09-19T05:27:37;18.84;75.83
65584;DHT22;70321;43.592;1.456;2023-09-19T05:30:04;18.77;76.01
65584;DHT22;70321;43.592;1.456;2023-09-19T05:32:31;18.75;76.22
65584;DHT22;70321;43.592;1.456;2023-09-19T05:34:58;18.75;76.38
65584;DHT22;70321;43.592;1.456;2023-09-19T05:37:24;18.74;76.12
65584;DHT22;70321;43.592;1.456;2023-09-19T05:39:52;18.75;75.36
65584;DHT22;70321;43.592;1.456;2023-09-19T05:42:23;18.75;75.41
65584;DHT22;70321;43.592;1.456;2023-09-19T05:44:50;18.70;74.72
65584;DHT22;70321;43.592;1.456;2023-09-19T05:47:17;18.63;75.38
65584;DHT22;70321;43.592;1.456;2023-09-19T05:49:44;18.56;76.17
65584;DHT22;70321;43.592;1.456;2023-09-19T05:52:11;18.54;76.54
65584;DHT22;70321;43.592;1.456;2023-09-19T05:54:38;18.53;76.73
65584;DHT22;70321;43.592;1.456;2023-09-19T05:57:04;18.57;76.60
65584;DHT22;70321;43.592;1.456;2023-09-19T05:59:31;18.57;76.41
65584;DHT22;70321;43.592;1.456;2023-09-19T06:01:59;18.61;76.03
65584;DHT22;70321;43.592;1.456;2023-09-19T06:04:27;18.63;75.86
65584;DHT22;70321;43.592;1.456;2023-09-19T06:06:54;18.60;75.71
65584;DHT22;70321;43.592;1.456;2023-09-19T06:09:21;18.57;75.57
65584;DHT22;70321;43.592;1.456;2023-09-19T06:11:49;18.54;76.43
65584;DHT22;70321;43.592;1.456;2023-09-19T06:14:16;18.60;76.05
65584;DHT22;70321;43.592;1.456;2023-09-19T06:16:44;18.60;76.17
65584;DHT22;70321;43.592;1.456;2023-09-19T06:19:11;18.61;76.22
65584;DHT22;70321;43.592;1.456;2023-09-19T06:21:38;18.65;76.46
65584;DHT22;70321;43.592;1.456;2023-09-19T06:24:05;18.67;75.65
65584;DHT22;70321;43.592;1.456;2023-09-19T06:26:32;18.63;75.07
65584;DHT22;70321;43.592;1.456;2023-09-19T06:28:59;18.57;74.92
65584;DHT22;70321;43.592;1.456;2023-09-19T06:31:26;18.50;75.81
65584;DHT22;70321;43.592;1.456;2023-09-19T06:33:53;18.51;75.75
65584;DHT22;70321;43.592;1.456;2023-09-19T06:36:20;18.49;76.05
65584;DHT22;70321;43.592;1.456;2023-09-19T06:38:46;18.53;76.37
65584;DHT22;70321;43.592;1.456;2023-09-19T06:41:13;18.47;75.95
65584;DHT22;70321;43.592;1.456;2023-09-19T06:43:42;18.46;76.30
65584;DHT22;70321;43.592;1.456;2023-09-19T06:46:09;18.44;76.34
65584;DHT22;70321;43.592;1.456;2023-09-19T06:48:36;18.41;76.23
65584;DHT22;70321;43.592;1.456;2023-09-19T06:51:03;18.46;75.87
65584;DHT22;70321;43.592;1.456;2023-09-19T06:53:32;18.47;76.30
65584;DHT22;70321;43.592;1.456;2023-09-19T06:56:01;18.51;75.88
65584;DHT22;70321;43.592;1.456;2023-09-19T06:58:28;18.56;76.10
65584;DHT22;70321;43.592;1.456;2023-09-19T07:00:55;18.59;76.01
65584;DHT22;70321;43.592;1.456;2023-09-19T07:03:22;18.64;76.00
65584;DHT22;70321;43.592;1.456;2023-09-19T07:05:52;18.68;76.12
65584;DHT22;70321;43.592;1.456;2023-09-19T07:08:19;18.75;76.43
65584;DHT22;70321;43.592;1.456;2023-09-19T07:10:46;18.81;75.65
65584;DHT22;70321;43.592;1.456;2023-09-19T07:13:16;18.81;75.19
65584;DHT22;70321;43.592;1.456;2023-09-19T07:15:44;18.83;75.54
65584;DHT22;70321;43.592;1.456;2023-09-19T07:18:14;18.87;75.66
65584;DHT22;70321;43.592;1.456;2023-09-19T07:20:41;18.95;75.92
65584;DHT22;70321;43.592;1.456;2023-09-19T07:23:18;19.04;75.73
65584;DHT22;70321;43.592;1.456;2023-09-19T07:25:48;19.12;75.90
65584;DHT22;70321;43.592;1.456;2023-09-19T07:28:15;19.21;75.80
65584;DHT22;70321;43.592;1.456;2023-09-19T07:30:42;19.25;75.71
65584;DHT22;70321;43.592;1.456;2023-09-19T07:33:09;19.34;75.57
65584;DHT22;70321;43.592;1.456;2023-09-19T07:35:39;19.35;75.37
65584;DHT22;70321;43.592;1.456;2023-09-19T07:38:08;19.42;75.23
65584;DHT22;70321;43.592;1.456;2023-09-19T07:40:38;19.46;75.37
65584;DHT22;70321;43.592;1.456;2023-09-19T07:43:06;19.55;75.57
65584;DHT22;70321;43.592;1.456;2023-09-19T07:45:33;19.63;75.39
65584;DHT22;70321;43.592;1.456;2023-09-19T07:48:00;19.72;75.13
65584;DHT22;70321;43.592;1.456;2023-09-19T07:50:30;19.82;74.35
65584;DHT22;70321;43.592;1.456;2023-09-19T07:52:57;19.92;74.61
65584;DHT22;70321;43.592;1.456;2023-09-19T07:55:25;19.99;74.59
65584;DHT22;70321;43.592;1.456;2023-09-19T07:57:52;20.01;74.33
65584;DHT22;70321;43.592;1.456;2023-09-19T08:00:19;20.09;74.55
65584;DHT22;70321;43.592;1.456;2023-09-19T08:02:46;20.14;74.44
65584;DHT22;70321;43.592;1.456;2023-09-19T08:05:24;20.20;73.99
65584;DHT22;70321;43.592;1.456;2023-09-19T08:07:51;20.21;73.90
65584;DHT22;70321;43.592;1.456;2023-09-19T08:10:19;20.24;74.34
65584;DHT22;70321;43.592;1.456;2023-09-19T08:12:46;20.26;74.21
65584;DHT22;70321;43.592;1.456;2023-09-19T08:15:18;20.34;74.23
65584;DHT22;70321;43.592;1.456;2023-09-19T08:17:48;20.45;74.17
65584;DHT22;70321;43.592;1.456;2023-09-19T08:20:15;20.53;73.44
65584;DHT22;70321;43.592;1.456;2023-09-19T08:22:53;20.63;73.44
65584;DHT22;70321;43.592;1.456;2023-09-19T08:25:22;20.83;73.12
65584;DHT22;70321;43.592;1.456;2023-09-19T08:27:49;21.02;73.57
65584;DHT22;70321;43.592;1.456;2023-09-19T08:30:19;21.16;72.33
65584;DHT22;70321;43.592;1.456;2023-09-19T08:32:46;21.25;72.04
65584;DHT22;70321;43.592;1.456;2023-09-19T08:35:14;21.39;72.00
65584;DHT22;70321;43.592;1.456;2023-09-19T08:37:42;21.56;71.92
65584;DHT22;70321;43.592;1.456;2023-09-19T08:40:09;21.67;71.84
65584;DHT22;70321;43.592;1.456;2023-09-19T08:42:52;21.70;70.64
65584;DHT22;70321;43.592;1.456;2023-09-19T08:45:21;21.69;69.82
65584;DHT22;70321;43.592;1.456;2023-09-19T08:50:30;21.73;70.85
65584;DHT22;70321;43.592;1.456;2023-09-19T08:53:01;21.85;70.26
65584;DHT22;70321;43.592;1.456;2023-09-19T08:55:28;21.97;70.04
65584;DHT22;70321;43.592;1.456;2023-09-19T08:58:04;22.13;69.32
65584;DHT22;70321;43.592;1.456;2023-09-19T09:00:34;22.36;69.19
65584;DHT22;70321;43.592;1.456;2023-09-19T09:03:02;22.60;68.55
65584;DHT22;70321;43.592;1.456;2023-09-19T09:05:31;22.61;67.16
65584;DHT22;70321;43.592;1.456;2023-09-19T09:07:59;22.53;67.44
65584;DHT22;70321;43.592;1.456;2023-09-19T09:10:26;22.51;67.04
65584;DHT22;70321;43.592;1.456;2023-09-19T09:12:53;22.41;67.77
65584;DHT22;70321;43.592;1.456;2023-09-19T09:15:22;22.37;68.19
65584;DHT22;70321;43.592;1.456;2023-09-19T09:17:51;22.32;68.71
65584;DHT22;70321;43.592;1.456;2023-09-19T09:20:20;22.24;69.07
65584;DHT22;70321;43.592;1.456;2023-09-19T09:22:54;22.18;68.92
65584;DHT22;70321;43.592;1.456;2023-09-19T09:25:47;22.10;68.53
65584;DHT22;70321;43.592;1.456;2023-09-19T09:28:19;22.09;69.32
65584;DHT22;70321;43.592;1.456;2023-09-19T09:30:46;22.25;68.41
65584;DHT22;70321;43.592;1.456;2023-09-19T09:33:14;22.58;68.79
65584;DHT22;70321;43.592;1.456;2023-09-19T09:35:56;22.99;68.24
65584;DHT22;70321;43.592;1.456;2023-09-19T09:38:25;23.23;66.52
65584;DHT22;70321;43.592;1.456;2023-09-19T09:40:55;23.37;66.59
65584;DHT22;70321;43.592;1.456;2023-09-19T09:43:42;23.28;65.74
65584;DHT22;70321;43.592;1.456;2023-09-19T09:46:18;23.11;65.50
65584;DHT22;70321;43.592;1.456;2023-09-19T09:49:05;22.81;65.86
65584;DHT22;70321;43.592;1.456;2023-09-19T09:51:59;22.57;66.67
65584;DHT22;70321;43.592;1.456;2023-09-19T09:54:28;22.64;67.80
65584;DHT22;70321;43.592;1.456;2023-09-19T09:57:01;22.94;67.01
65584;DHT22;70321;43.592;1.456;2023-09-19T09:59:56;23.35;65.79
65584;DHT22;70321;43.592;1.456;2023-09-19T10:02:42;23.74;64.90
65584;DHT22;70321;43.592;1.456;2023-09-19T10:05:16;24.03;63.25
65584;DHT22;70321;43.592;1.456;2023-09-19T10:07:50;24.27;62.22
65584;DHT22;70321;43.592;1.456;2023-09-19T10:10:35;24.36;62.71
65584;DHT22;70321;43.592;1.456;2023-09-19T10:13:10;24.36;63.09
65584;DHT22;70321;43.592;1.456;2023-09-19T10:15:49;24.26;61.42
65584;DHT22;70321;43.592;1.456;2023-09-19T10:18:23;24.10;62.43
65584;DHT22;70321;43.592;1.456;2023-09-19T10:20:50;23.99;61.43
65584;DHT22;70321;43.592;1.456;2023-09-19T10:23:19;23.80;63.11
65584;DHT22;70321;43.592;1.456;2023-09-19T10:25:50;23.77;62.68
65584;DHT22;70321;43.592;1.456;2023-09-19T10:28:19;23.77;63.13
65584;DHT22;70321;43.592;1.456;2023-09-19T10:30:51;23.86;63.47
65584;DHT22;70321;43.592;1.456;2023-09-19T10:33:21;24.04;63.49
65584;DHT22;70321;43.592;1.456;2023-09-19T10:35:49;24.04;63.44
65584;DHT22;70321;43.592;1.456;2023-09-19T10:38:27;24.10;61.52
65584;DHT22;70321;43.592;1.456;2023-09-19T10:40:58;24.04;61.00
65584;DHT22;70321;43.592;1.456;2023-09-19T10:43:32;23.90;60.20
65584;DHT22;70321;43.592;1.456;2023-09-19T10:46:03;24.16;61.12
65584;DHT22;70321;43.592;1.456;2023-09-19T10:48:34;24.47;61.44
65584;DHT22;70321;43.592;1.456;2023-09-19T10:51:02;24.87;60.15
65584;DHT22;70321;43.592;1.456;2023-09-19T10:53:45;25.26;57.85
65584;DHT22;70321;43.592;1.456;2023-09-19T10:56:30;25.55;58.12
65584;DHT22;70321;43.592;1.456;2023-09-19T11:04:34;26.21;56.68
65584;DHT22;70321;43.592;1.456;2023-09-19T11:07:09;26.45;54.98
65584;DHT22;70321;43.592;1.456;2023-09-19T11:09:59;26.50;53.26
65584;DHT22;70321;43.592;1.456;2023-09-19T11:14:58;26.62;50.97
65584;DHT22;70321;43.592;1.456;2023-09-19T11:17:33;26.50;49.84
65584;DHT22;70321;43.592;1.456;2023-09-19T11:30:39;26.03;51.05
65584;DHT22;70321;43.592;1.456;2023-09-19T11:33:30;26.50;52.00
65584;DHT22;70321;43.592;1.456;2023-09-19T11:36:14;27.02;52.15
65584;DHT22;70321;43.592;1.456;2023-09-19T11:43:54;27.73;49.55
65584;DHT22;70321;43.592;1.456;2023-09-19T11:46:54;27.97;49.14
65584;DHT22;70321;43.592;1.456;2023-09-19T11:49:31;28.28;47.43
65584;DHT22;70321;43.592;1.456;2023-09-19T11:52:00;28.69;46.74
65584;DHT22;70321;43.592;1.456;2023-09-19T11:54:28;28.95;45.27
65584;DHT22;70321;43.592;1.456;2023-09-19T11:56:59;29.25;45.26
65584;DHT22;70321;43.592;1.456;2023-09-19T11:59:27;29.50;43.99
65584;DHT22;70321;43.592;1.456;2023-09-19T12:01:58;29.63;43.56
65584;DHT22;70321;43.592;1.456;2023-09-19T12:04:38;29.96;44.62
65584;DHT22;70321;43.592;1.456;2023-09-19T12:07:07;30.18;43.80
65584;DHT22;70321;43.592;1.456;2023-09-19T12:09:40;30.16;41.96
65584;DHT22;70321;43.592;1.456;2023-09-19T12:12:11;30.40;41.72
65584;DHT22;70321;43.592;1.456;2023-09-19T12:14:47;30.09;43.89
65584;DHT22;70321;43.592;1.456;2023-09-19T12:17:14;30.11;42.24
65584;DHT22;70321;43.592;1.456;2023-09-19T12:19:50;30.16;41.86
65584;DHT22;70321;43.592;1.456;2023-09-19T12:22:18;30.24;42.72
65584;DHT22;70321;43.592;1.456;2023-09-19T12:24:47;30.44;41.35
65584;DHT22;70321;43.592;1.456;2023-09-19T12:27:15;30.68;41.99
65584;DHT22;70321;43.592;1.456;2023-09-19T12:29:49;30.91;40.28
65584;DHT22;70321;43.592;1.456;2023-09-19T12:32:16;31.26;41.44
65584;DHT22;70321;43.592;1.456;2023-09-19T12:34:51;31.66;40.17
65584;DHT22;70321;43.592;1.456;2023-09-19T12:37:20;31.62;38.92
65584;DHT22;70321;43.592;1.456;2023-09-19T12:40:06;31.92;39.65
65584;DHT22;70321;43.592;1.456;2023-09-19T12:42:41;32.13;39.00
65584;DHT22;70321;43.592;1.456;2023-09-19T12:45:09;32.57;39.14
65584;DHT22;70321;43.592;1.456;2023-09-19T12:47:36;32.45;39.17
65584;DHT22;70321;43.592;1.456;2023-09-19T12:52:45;33.11;37.76
65584;DHT22;70321;43.592;1.456;2023-09-19T12:55:40;33.52;37.59
65584;DHT22;70321;43.592;1.456;2023-09-19T12:58:12;33.29;33.77
65584;DHT22;70321;43.592;1.456;2023-09-19T13:00:43;33.12;34.71
65584;DHT22;70321;43.592;1.456;2023-09-19T13:05:56;32.94;34.78
65584;DHT22;70321;43.592;1.456;2023-09-19T13:08:31;32.97;34.39
65584;DHT22;70321;43.592;1.456;2023-09-19T13:11:12;33.12;35.82
65584;DHT22;70321;43.592;1.456;2023-09-19T13:16:21;33.21;33.78
65584;DHT22;70321;43.592;1.456;2023-09-19T13:18:55;33.26;36.04
65584;DHT22;70321;43.592;1.456;2023-09-19T13:21:29;33.01;33.59
65584;DHT22;70321;43.592;1.456;2023-09-19T13:24:25;33.04;35.78
65584;DHT22;70321;43.592;1.456;2023-09-19T13:26:56;33.19;33.32
65584;DHT22;70321;43.592;1.456;2023-09-19T13:29:23;33.35;34.64
65584;DHT22;70321;43.592;1.456;2023-09-19T13:31:51;33.73;33.60
65584;DHT22;70321;43.592;1.456;2023-09-19T13:34:19;34.17;34.57
65584;DHT22;70321;43.592;1.456;2023-09-19T13:36:46;34.50;33.99
65584;DHT22;70321;43.592;1.456;2023-09-19T13:39:16;34.84;33.63
65584;DHT22;70321;43.592;1.456;2023-09-19T13:41:47;35.12;32.99
65584;DHT22;70321;43.592;1.456;2023-09-19T13:44:15;35.31;32.78
65584;DHT22;70321;43.592;1.456;2023-09-19T13:46:43;35.48;32.65
65584;DHT22;70321;43.592;1.456;2023-09-19T13:49:13;35.56;31.95
65584;DHT22;70321;43.592;1.456;2023-09-19T13:51:40;35.19;30.13
65584;DHT22;70321;43.592;1.456;2023-09-19T13:54:10;34.92;31.33
65584;DHT22;70321;43.592;1.456;2023-09-19T13:56:38;34.91;32.07
65584;DHT22;70321;43.592;1.456;2023-09-19T13:59:05;34.70;30.82
65584;DHT22;70321;43.592;1.456;2023-09-19T14:01:33;34.68;32.19
65584;DHT22;70321;43.592;1.456;2023-09-19T14:04:00;34.68;31.74
65584;DHT22;70321;43.592;1.456;2023-09-19T14:06:26;34.67;32.52
65584;DHT22;70321;43.592;1.456;2023-09-19T14:08:53;34.41;30.79
65584;DHT22;70321;43.592;1.456;2023-09-19T14:11:20;34.24;32.09
65584;DHT22;70321;43.592;1.456;2023-09-19T14:13:46;34.19;31.92
65584;DHT22;70321;43.592;1.456;2023-09-19T14:16:16;34.33;31.76
65584;DHT22;70321;43.592;1.456;2023-09-19T14:18:45;34.32;30.47
65584;DHT22;70321;43.592;1.456;2023-09-19T14:21:12;34.20;31.50
65584;DHT22;70321;43.592;1.456;2023-09-19T14:23:39;34.13;31.75
65584;DHT22;70321;43.592;1.456;2023-09-19T14:26:06;34.28;31.98
65584;DHT22;70321;43.592;1.456;2023-09-19T14:28:33;34.40;31.88
65584;DHT22;70321;43.592;1.456;2023-09-19T14:31:09;34.51;31.90
65584;DHT22;70321;43.592;1.456;2023-09-19T14:33:37;34.17;31.27
65584;DHT22;70321;43.592;1.456;2023-09-19T14:36:06;33.73;31.59
65584;DHT22;70321;43.592;1.456;2023-09-19T14:38:37;33.45;32.10
65584;DHT22;70321;43.592;1.456;2023-09-19T14:41:05;33.55;32.09
65584;DHT22;70321;43.592;1.456;2023-09-19T14:43:32;33.59;32.34
65584;DHT22;70321;43.592;1.456;2023-09-19T14:46:03;33.58;32.03
65584;DHT22;70321;43.592;1.456;2023-09-19T14:48:30;33.77;32.48
65584;DHT22;70321;43.592;1.456;2023-09-19T14:51:04;34.04;31.97
65584;DHT22;70321;43.592;1.456;2023-09-19T14:53:32;34.17;30.93
65584;DHT22;70321;43.592;1.456;2023-09-19T14:56:02;34.26;31.59
65584;DHT22;70321;43.592;1.456;2023-09-19T14:58:33;34.37;32.10
65584;DHT22;70321;43.592;1.456;2023-09-19T15:01:03;34.51;31.79
65584;DHT22;70321;43.592;1.456;2023-09-19T15:03:32;34.58;30.86
65584;DHT22;70321;43.592;1.456;2023-09-19T15:06:10;34.72;31.41
65584;DHT22;70321;43.592;1.456;2023-09-19T15:08:41;34.76;30.91
65584;DHT22;70321;43.592;1.456;2023-09-19T15:11:15;34.63;30.52
65584;DHT22;70321;43.592;1.456;2023-09-19T15:13:46;34.68;31.33
65584;DHT22;70321;43.592;1.456;2023-09-19T15:16:13;34.36;30.16
65584;DHT22;70321;43.592;1.456;2023-09-19T15:18:42;34.32;31.91
65584;DHT22;70321;43.592;1.456;2023-09-19T15:21:10;34.37;32.62
65584;DHT22;70321;43.592;1.456;2023-09-19T15:23:38;34.33;32.74
65584;DHT22;70321;43.592;1.456;2023-09-19T15:26:07;34.17;32.47
65584;DHT22;70321;43.592;1.456;2023-09-19T15:28:35;34.14;32.63
65584;DHT22;70321;43.592;1.456;2023-09-19T15:31:06;34.16;33.87
65584;DHT22;70321;43.592;1.456;2023-09-19T15:33:34;33.72;33.12
65584;DHT22;70321;43.592;1.456;2023-09-19T15:36:12;33.17;34.93
65584;DHT22;70321;43.592;1.456;2023-09-19T15:38:58;32.60;35.91
65584;DHT22;70321;43.592;1.456;2023-09-19T15:41:34;32.16;36.38
65584;DHT22;70321;43.592;1.456;2023-09-19T15:44:02;31.83;36.90
65584;DHT22;70321;43.592;1.456;2023-09-19T15:46:31;31.53;36.52
65584;DHT22;70321;43.592;1.456;2023-09-19T15:49:02;31.26;37.78
65584;DHT22;70321;43.592;1.456;2023-09-19T15:51:29;31.03;38.17
65584;DHT22;70321;43.592;1.456;2023-09-19T15:53:56;30.81;38.50
65584;DHT22;70321;43.592;1.456;2023-09-19T15:56:24;30.58;38.54
65584;DHT22;70321;43.592;1.456;2023-09-19T15:58:52;30.43;39.89
65584;DHT22;70321;43.592;1.456;2023-09-19T16:01:21;30.24;37.97
65584;DHT22;70321;43.592;1.456;2023-09-19T16:03:50;30.00;38.13
65584;DHT22;70321;43.592;1.456;2023-09-19T16:06:21;29.79;39.74
65584;DHT22;70321;43.592;1.456;2023-09-19T16:08:52;29.69;40.74
65584;DHT22;70321;43.592;1.456;2023-09-19T16:11:19;29.60;40.20
65584;DHT22;70321;43.592;1.456;2023-09-19T16:13:50;29.50;40.58
65584;DHT22;70321;43.592;1.456;2023-09-19T16:16:18;29.35;39.82
65584;DHT22;70321;43.592;1.456;2023-09-19T16:18:50;29.14;38.15
65584;DHT22;70321;43.592;1.456;2023-09-19T16:21:18;28.90;39.25
65584;DHT22;70321;43.592;1.456;2023-09-19T16:23:49;28.79;40.61
65584;DHT22;70321;43.592;1.456;2023-09-19T16:26:17;28.79;40.33
65584;DHT22;70321;43.592;1.456;2023-09-19T16:28:45;28.78;42.35
65584;DHT22;70321;43.592;1.456;2023-09-19T16:31:13;28.75;42.34
65584;DHT22;70321;43.592;1.456;2023-09-19T16:33:40;28.76;42.79
65584;DHT22;70321;43.592;1.456;2023-09-19T16:36:11;28.69;42.81
65584;DHT22;70321;43.592;1.456;2023-09-19T16:38:39;28.61;42.76